Time;durP1;ratioP1;P1;durP2;ratioP2;P2;SDS_P1;SDS_P2;PMS_P1;PMS_P2;Temp;Humidity;BMP_temperature;BMP_pressure;BME280_temperature;BME280_humidity;BME280_pressure;Samples;Min_cycle;Max_cycle;Signal;HPM_P1;HPM_P2
2023/11/29 00:00:30;;;;;;;13.00;8.07;;;;;;;;;;5016888;28;20418;-82
2023/11/29 00:02:56;;;;;;;9.10;5.80;;;;;;;;;;5016956;28;20405;-81
2023/11/29 00:05:22;;;;;;;14.07;9.23;;;;;;;;;;5016451;28;20479;-82
2023/11/29 00:07:48;;;;;;;13.00;7.23;;;;;;;;;;5016823;28;20907;-82
2023/11/29 00:10:14;;;;;;;14.67;8.27;;;;;;;;;;5016755;28;20508;-81
2023/11/29 00:12:40;;;;;;;14.37;9.63;;;;;;;;;;5016780;28;20504;-82
2023/11/29 00:15:07;;;;;;;13.37;8.73;;;;;;;;;;5016648;28;20402;-81
2023/11/29 00:17:32;;;;;;;11.87;7.10;;;;;;;;;;5016859;28;20418;-81
2023/11/29 00:19:58;;;;;;;11.33;7.63;;;;;;;;;;5016627;28;20410;-81
2023/11/29 00:22:24;;;;;;;10.70;6.00;;;;;;;;;;5016235;28;20411;-81
2023/11/29 00:24:50;;;;;;;13.17;9.00;;;;;;;;;;5016457;28;20985;-81
2023/11/29 00:27:16;;;;;;;11.20;7.90;;;;;;;;;;5016437;28;20402;-81
2023/11/29 00:29:42;;;;;;;12.47;7.70;;;;;;;;;;5016368;28;20457;-81
2023/11/29 00:32:08;;;;;;;13.43;8.67;;;;;;;;;;5016133;28;20856;-81
2023/11/29 00:34:34;;;;;;;12.77;8.93;;;;;;;;;;5016338;28;20437;-81
2023/11/29 00:37:01;;;;;;;13.60;9.77;;;;;;;;;;5015972;28;20756;-81
2023/11/29 00:39:27;;;;;;;12.93;9.20;;;;;;;;;;5016228;28;20475;-81
2023/11/29 00:41:53;;;;;;;14.93;8.57;;;;;;;;;;5016188;28;20419;-81
2023/11/29 00:44:19;;;;;;;12.20;8.50;;;;;;;;;;5014773;28;20572;-82
2023/11/29 00:46:48;;;;;;;16.73;9.77;;;;;;;;;;5016112;28;20412;-81
2023/11/29 00:49:17;;;;;;;12.47;8.57;;;;;;;;;;5016045;28;20453;-82
2023/11/29 00:51:43;;;;;;;14.33;8.70;;;;;;;;;;5014397;28;20421;-81
2023/11/29 00:54:29;;;;;;;13.30;8.57;;;;;;;;;;5015927;28;20418;-81
2023/11/29 00:56:55;;;;;;;12.37;7.23;;;;;;;;;;5014622;28;20799;-80
2023/11/29 00:59:21;;;;;;;10.10;7.07;;;;;;;;;;5015420;28;20581;-82
2023/11/29 01:01:47;;;;;;;12.03;8.40;;;;;;;;;;5015790;28;20457;-81
2023/11/29 01:04:13;;;;;;;11.93;8.13;;;;;;;;;;4973563;28;20577;-79
2023/11/29 01:06:41;;;;;;;15.10;9.77;;;;;;;;;;5014988;28;20491;-82
2023/11/29 01:09:07;;;;;;;13.70;8.63;;;;;;;;;;5015688;28;20422;-78
2023/11/29 01:11:33;;;;;;;13.37;8.47;;;;;;;;;;5015771;28;20412;-80
2023/11/29 01:13:59;;;;;;;12.00;8.57;;;;;;;;;;5015558;28;20415;-80
2023/11/29 01:16:25;;;;;;;11.60;8.50;;;;;;;;;;5015532;28;20497;-82
2023/11/29 01:18:51;;;;;;;14.47;9.80;;;;;;;;;;5015545;28;20497;-81
2023/11/29 01:21:17;;;;;;;13.03;8.03;;;;;;;;;;5015187;28;20505;-81
2023/11/29 01:23:43;;;;;;;13.37;9.30;;;;;;;;;;5015437;28;20473;-79
2023/11/29 01:26:09;;;;;;;14.70;9.40;;;;;;;;;;5015393;28;20410;-80
2023/11/29 01:28:36;;;;;;;16.40;9.70;;;;;;;;;;5015423;28;20418;-80
2023/11/29 01:31:08;;;;;;;16.33;9.97;;;;;;;;;;5015133;28;20462;-80
2023/11/29 01:33:34;;;;;;;15.30;9.90;;;;;;;;;;5013976;28;20861;-79
2023/11/29 01:36:10;;;;;;;20.03;11.57;;;;;;;;;;5014907;28;20757;-78
2023/11/29 01:38:36;;;;;;;15.20;10.10;;;;;;;;;;5015223;28;20504;-79
2023/11/29 01:41:03;;;;;;;16.23;10.63;;;;;;;;;;5015145;28;20411;-79
2023/11/29 01:43:29;;;;;;;15.70;11.37;;;;;;;;;;5015091;28;20509;-79
2023/11/29 01:45:54;;;;;;;15.17;11.03;;;;;;;;;;5015019;28;20904;-79
2023/11/29 01:48:21;;;;;;;15.80;13.47;;;;;;;;;;5015018;28;20513;-80
2023/11/29 01:50:48;;;;;;;18.30;12.17;;;;;;;;;;5015058;28;20433;-79
2023/11/29 01:53:15;;;;;;;16.57;11.80;;;;;;;;;;5014804;28;20419;-80
2023/11/29 01:55:41;;;;;;;18.93;12.67;;;;;;;;;;5014825;28;20417;-79
2023/11/29 01:58:08;;;;;;;20.40;14.27;;;;;;;;;;5013584;28;20514;-80
2023/11/29 02:00:33;;;;;;;16.63;13.27;;;;;;;;;;5014787;28;20500;-80
2023/11/29 02:02:59;;;;;;;19.27;13.53;;;;;;;;;;5014743;28;20466;-79
2023/11/29 02:05:25;;;;;;;20.07;13.30;;;;;;;;;;5014144;28;20556;-79
2023/11/29 02:07:51;;;;;;;18.80;12.20;;;;;;;;;;5014632;28;20412;-79
2023/11/29 02:10:17;;;;;;;20.83;13.67;;;;;;;;;;5013356;28;20516;-80
2023/11/29 02:12:43;;;;;;;22.70;14.10;;;;;;;;;;5013305;28;20496;-79
2023/11/29 02:15:10;;;;;;;18.30;13.07;;;;;;;;;;5014540;28;20910;-80
2023/11/29 02:17:36;;;;;;;18.00;13.03;;;;;;;;;;5014150;28;20407;-80
2023/11/29 02:20:03;;;;;;;20.87;15.03;;;;;;;;;;5013905;28;20830;-80
2023/11/29 02:22:31;;;;;;;25.07;16.10;;;;;;;;;;5014330;28;20415;-79
2023/11/29 02:24:57;;;;;;;22.23;15.20;;;;;;;;;;5014187;28;20564;-79
2023/11/29 02:27:23;;;;;;;17.90;15.03;;;;;;;;;;5014304;28;20970;-80
2023/11/29 02:29:49;;;;;;;22.07;15.10;;;;;;;;;;5014093;28;20822;-79
2023/11/29 02:32:15;;;;;;;19.07;13.57;;;;;;;;;;5014219;28;20781;-79
2023/11/29 02:34:41;;;;;;;20.63;16.50;;;;;;;;;;5013783;28;20414;-79
2023/11/29 02:37:07;;;;;;;22.13;15.90;;;;;;;;;;5013119;28;20433;-79
2023/11/29 02:39:33;;;;;;;22.57;15.80;;;;;;;;;;5014103;28;20422;-78
2023/11/29 02:41:59;;;;;;;20.10;15.40;;;;;;;;;;5012753;28;20425;-79
2023/11/29 02:44:25;;;;;;;19.43;15.43;;;;;;;;;;5013881;28;20520;-80
2023/11/29 02:46:51;;;;;;;22.63;16.03;;;;;;;;;;5012724;28;20779;-79
2023/11/29 02:49:17;;;;;;;19.43;14.20;;;;;;;;;;5013867;28;20411;-79
2023/11/29 02:51:43;;;;;;;20.23;15.77;;;;;;;;;;5013497;28;20448;-80
2023/11/29 02:54:08;;;;;;;21.27;14.90;;;;;;;;;;5013822;28;20429;-79
2023/11/29 02:56:34;;;;;;;22.13;16.70;;;;;;;;;;5013731;28;20416;-80
2023/11/29 02:59:00;;;;;;;23.30;16.50;;;;;;;;;;5012586;28;20928;-80
2023/11/29 03:01:26;;;;;;;18.70;15.80;;;;;;;;;;5028945;28;20412;-80
2023/11/29 03:03:52;;;;;;;20.43;16.43;;;;;;;;;;5013560;28;20524;-80
2023/11/29 03:06:18;;;;;;;23.07;16.97;;;;;;;;;;5013660;28;20447;-80
2023/11/29 03:08:44;;;;;;;19.23;14.60;;;;;;;;;;5013550;28;20445;-80
2023/11/29 03:11:10;;;;;;;20.70;16.60;;;;;;;;;;5013530;28;20923;-80
2023/11/29 03:13:36;;;;;;;21.13;16.27;;;;;;;;;;5013529;28;20407;-79
2023/11/29 03:16:02;;;;;;;22.20;18.70;;;;;;;;;;5013547;28;20423;-80
2023/11/29 03:18:30;;;;;;;21.63;17.47;;;;;;;;;;5012527;28;20464;-80
2023/11/29 03:20:56;;;;;;;23.20;18.20;;;;;;;;;;5011788;28;20914;-80
2023/11/29 03:23:22;;;;;;;21.67;16.33;;;;;;;;;;5013294;28;20552;-80
2023/11/29 03:25:48;;;;;;;21.73;16.30;;;;;;;;;;5013371;28;20467;-80
2023/11/29 03:28:14;;;;;;;22.70;16.10;;;;;;;;;;5012543;28;20414;-79
2023/11/29 03:30:39;;;;;;;23.23;15.50;;;;;;;;;;5013133;28;20823;-79
2023/11/29 03:33:05;;;;;;;23.40;16.83;;;;;;;;;;5013203;28;20887;-80
2023/11/29 03:35:31;;;;;;;20.83;16.20;;;;;;;;;;5011639;28;20425;-80
2023/11/29 03:37:57;;;;;;;19.80;15.20;;;;;;;;;;5013159;28;20416;-80
2023/11/29 03:40:23;;;;;;;22.50;17.70;;;;;;;;;;5011915;28;20459;-80
2023/11/29 03:42:49;;;;;;;22.00;15.73;;;;;;;;;;5013311;28;20939;-80
2023/11/29 03:45:15;;;;;;;22.87;15.73;;;;;;;;;;5013082;28;20474;-80
2023/11/29 03:47:41;;;;;;;24.80;15.60;;;;;;;;;;5013187;28;20449;-80
2023/11/29 03:50:07;;;;;;;23.87;15.87;;;;;;;;;;5011619;28;20523;-80
2023/11/29 03:52:36;;;;;;;22.33;14.50;;;;;;;;;;5011922;28;20513;-81
2023/11/29 03:55:02;;;;;;;23.33;16.77;;;;;;;;;;5013117;28;20501;-80
2023/11/29 03:57:28;;;;;;;19.40;15.43;;;;;;;;;;5011889;28;20446;-80
2023/11/29 03:59:54;;;;;;;23.30;16.57;;;;;;;;;;5012959;28;20448;-80
2023/11/29 04:02:20;;;;;;;20.17;14.50;;;;;;;;;;5013120;28;20402;-80
2023/11/29 04:04:45;;;;;;;20.67;15.17;;;;;;;;;;5012599;28;20469;-80
2023/11/29 04:07:12;;;;;;;18.23;14.87;;;;;;;;;;5013002;28;20411;-80
2023/11/29 04:09:38;;;;;;;20.50;15.77;;;;;;;;;;5011795;28;20424;-80
2023/11/29 04:12:04;;;;;;;23.30;14.90;;;;;;;;;;5012974;28;20989;-80
2023/11/29 04:14:30;;;;;;;20.80;16.20;;;;;;;;;;5012965;28;20433;-79
2023/11/29 04:16:56;;;;;;;20.37;16.60;;;;;;;;;;5013089;28;20456;-80
2023/11/29 04:19:22;;;;;;;21.50;15.57;;;;;;;;;;5012549;28;20417;-80
2023/11/29 04:21:48;;;;;;;18.57;13.83;;;;;;;;;;5012906;28;20417;-80
2023/11/29 04:24:14;;;;;;;23.50;16.20;;;;;;;;;;5012733;28;20481;-80
2023/11/29 04:26:41;;;;;;;26.00;16.93;;;;;;;;;;5012824;28;20410;-80
2023/11/29 04:29:08;;;;;;;21.20;16.20;;;;;;;;;;5012775;28;20423;-80
2023/11/29 04:31:35;;;;;;;20.77;15.70;;;;;;;;;;5009802;28;20473;-80
2023/11/29 04:34:01;;;;;;;19.50;14.97;;;;;;;;;;4996165;28;20432;-80
2023/11/29 04:36:27;;;;;;;20.10;13.67;;;;;;;;;;5032095;28;20424;-80
2023/11/29 04:38:53;;;;;;;20.97;14.83;;;;;;;;;;5033016;28;20430;-80
2023/11/29 04:41:19;;;;;;;17.23;14.90;;;;;;;;;;5034730;28;20421;-80
2023/11/29 04:43:45;;;;;;;20.97;16.30;;;;;;;;;;5035878;28;20456;-80
2023/11/29 04:46:14;;;;;;;19.23;15.47;;;;;;;;;;5035824;28;20434;-80
2023/11/29 04:48:43;;;;;;;18.90;15.30;;;;;;;;;;5035924;28;20749;-79
2023/11/29 04:51:08;;;;;;;17.87;13.53;;;;;;;;;;5035550;28;20432;-79
2023/11/29 04:53:36;;;;;;;22.80;16.13;;;;;;;;;;5035757;28;20413;-80
2023/11/29 04:56:01;;;;;;;16.00;14.07;;;;;;;;;;5035776;28;20451;-80
2023/11/29 04:58:28;;;;;;;19.83;15.10;;;;;;;;;;5034295;28;20436;-79
2023/11/29 05:00:54;;;;;;;17.33;15.00;;;;;;;;;;5035635;28;20848;-79
2023/11/29 05:03:20;;;;;;;17.87;14.03;;;;;;;;;;5035514;28;20516;-80
2023/11/29 05:05:46;;;;;;;15.87;14.20;;;;;;;;;;5016309;28;20434;-80
2023/11/29 05:08:12;;;;;;;21.13;15.73;;;;;;;;;;5015732;28;20410;-80
2023/11/29 05:10:38;;;;;;;17.33;14.90;;;;;;;;;;5015678;28;20424;-81
2023/11/29 05:13:06;;;;;;;18.10;13.03;;;;;;;;;;5014422;28;20456;-80
2023/11/29 05:15:32;;;;;;;15.43;13.60;;;;;;;;;;5015621;28;20489;-81
2023/11/29 05:18:01;;;;;;;16.13;13.37;;;;;;;;;;5015620;28;20402;-81
2023/11/29 05:20:27;;;;;;;15.17;12.63;;;;;;;;;;5015178;28;20406;-80
2023/11/29 05:22:53;;;;;;;16.77;14.07;;;;;;;;;;5015332;28;20411;-81
2023/11/29 05:25:19;;;;;;;16.13;13.17;;;;;;;;;;5015349;28;20475;-81
2023/11/29 05:27:45;;;;;;;15.47;11.73;;;;;;;;;;5015376;28;20412;-80
2023/11/29 05:30:11;;;;;;;15.30;12.03;;;;;;;;;;5014974;28;20523;-80
2023/11/29 05:32:37;;;;;;;15.73;12.20;;;;;;;;;;5015335;28;20445;-80
2023/11/29 05:35:03;;;;;;;15.40;11.93;;;;;;;;;;5014930;28;20422;-81
2023/11/29 05:37:29;;;;;;;12.93;10.13;;;;;;;;;;5015118;28;20783;-80
2023/11/29 05:39:56;;;;;;;14.03;11.83;;;;;;;;;;5015132;28;20412;-81
2023/11/29 05:42:22;;;;;;;14.77;12.07;;;;;;;;;;5015147;28;20417;-81
2023/11/29 05:44:49;;;;;;;13.77;11.17;;;;;;;;;;5015390;28;20556;-81
2023/11/29 05:47:15;;;;;;;12.73;11.43;;;;;;;;;;5015003;28;20421;-81
2023/11/29 05:49:41;;;;;;;13.87;11.27;;;;;;;;;;5014615;28;20448;-81
2023/11/29 05:52:07;;;;;;;13.27;11.87;;;;;;;;;;5014275;28;20413;-81
2023/11/29 05:54:33;;;;;;;12.10;10.80;;;;;;;;;;5014828;28;20791;-81
2023/11/29 05:56:59;;;;;;;14.10;11.47;;;;;;;;;;5014976;28;20427;-81
2023/11/29 05:59:26;;;;;;;12.80;11.53;;;;;;;;;;4974196;28;20783;-81
2023/11/29 06:01:54;;;;;;;14.87;11.67;;;;;;;;;;5015597;28;20422;-80
2023/11/29 06:04:20;;;;;;;12.93;11.27;;;;;;;;;;5034024;28;20491;-82
2023/11/29 06:06:46;;;;;;;13.50;11.37;;;;;;;;;;5033108;28;20409;-81
2023/11/29 06:09:12;;;;;;;13.13;11.73;;;;;;;;;;5025361;28;20430;-82
2023/11/29 06:11:38;;;;;;;15.30;13.30;;;;;;;;;;5014576;28;20914;-82
2023/11/29 06:14:04;;;;;;;17.60;14.83;;;;;;;;;;5014513;28;20524;-81
2023/11/29 06:16:30;;;;;;;18.53;12.97;;;;;;;;;;5014437;28;20853;-82
2023/11/29 06:18:56;;;;;;;15.90;13.63;;;;;;;;;;5014487;28;20455;-81
2023/11/29 06:21:22;;;;;;;16.70;14.00;;;;;;;;;;5013892;28;20429;-82
2023/11/29 06:23:47;;;;;;;20.30;14.50;;;;;;;;;;5014241;28;20471;-81
2023/11/29 06:26:13;;;;;;;17.77;14.87;;;;;;;;;;5017415;28;20423;-80
2023/11/29 06:28:41;;;;;;;17.20;14.30;;;;;;;;;;5022867;28;20469;-80
2023/11/29 06:31:07;;;;;;;21.80;15.90;;;;;;;;;;5032352;28;20897;-79
2023/11/29 06:33:33;;;;;;;20.23;16.20;;;;;;;;;;5033498;28;20420;-80
2023/11/29 06:36:01;;;;;;;19.53;15.77;;;;;;;;;;5033417;28;20512;-79
2023/11/29 06:38:27;;;;;;;20.97;15.97;;;;;;;;;;5032475;28;20441;-79
2023/11/29 06:40:53;;;;;;;20.73;16.67;;;;;;;;;;5033791;28;20571;-81
2023/11/29 06:43:19;;;;;;;21.20;16.20;;;;;;;;;;5033660;28;20933;-79
2023/11/29 06:45:46;;;;;;;21.00;15.60;;;;;;;;;;5025810;28;20473;-81
2023/11/29 06:48:12;;;;;;;21.20;15.43;;;;;;;;;;5013909;28;20493;-79
2023/11/29 06:50:38;;;;;;;20.30;16.70;;;;;;;;;;5013424;28;20984;-81
2023/11/29 06:53:04;;;;;;;21.30;16.50;;;;;;;;;;5004215;28;20429;-82
2023/11/29 06:55:32;;;;;;;21.10;16.20;;;;;;;;;;5022938;28;20776;-82
2023/11/29 06:57:58;;;;;;;20.20;14.80;;;;;;;;;;5023410;28;20445;-82
2023/11/29 07:00:25;;;;;;;20.67;16.30;;;;;;;;;;4979790;28;20426;-81
2023/11/29 07:02:51;;;;;;;23.87;17.00;;;;;;;;;;5038678;28;20448;-81
2023/11/29 07:05:17;;;;;;;20.30;15.10;;;;;;;;;;5022678;28;21183;-81
2023/11/29 07:07:43;;;;;;;20.87;16.80;;;;;;;;;;5020231;28;20943;-83
2023/11/29 07:10:09;;;;;;;22.57;16.73;;;;;;;;;;5023425;28;20508;-84
2023/11/29 07:12:35;;;;;;;20.37;15.87;;;;;;;;;;5022796;28;20640;-83
2023/11/29 07:15:02;;;;;;;19.53;15.00;;;;;;;;;;5021951;28;20516;-83
2023/11/29 07:17:27;;;;;;;20.50;15.80;;;;;;;;;;5018551;28;20405;-83
2023/11/29 07:19:54;;;;;;;17.83;15.70;;;;;;;;;;5022371;28;20429;-84
2023/11/29 07:22:24;;;;;;;17.57;14.37;;;;;;;;;;5022289;28;20397;-86
2023/11/29 07:24:50;;;;;;;19.97;16.90;;;;;;;;;;5022388;28;20543;-87
2023/11/29 07:27:16;;;;;;;22.30;16.50;;;;;;;;;;5025052;28;20411;-83
2023/11/29 07:29:42;;;;;;;18.80;15.20;;;;;;;;;;5017016;28;20893;-84
2023/11/29 07:32:08;;;;;;;18.10;14.40;;;;;;;;;;5034279;28;20822;-86
2023/11/29 07:34:34;;;;;;;20.00;15.00;;;;;;;;;;5033688;28;20431;-87
2023/11/29 07:37:00;;;;;;;19.93;15.33;;;;;;;;;;5034184;28;20985;-85
2023/11/29 07:39:29;;;;;;;19.40;15.03;;;;;;;;;;5029682;28;20426;-85
2023/11/29 07:41:55;;;;;;;19.10;15.23;;;;;;;;;;5015161;28;20417;-84
2023/11/29 07:44:21;;;;;;;19.13;13.23;;;;;;;;;;5029259;28;20481;-81
2023/11/29 07:46:47;;;;;;;19.27;13.97;;;;;;;;;;5013310;28;20407;-82
2023/11/29 07:49:13;;;;;;;18.47;14.80;;;;;;;;;;5012807;28;20475;-82
2023/11/29 07:51:40;;;;;;;15.50;13.50;;;;;;;;;;5028412;28;20421;-82
2023/11/29 07:54:06;;;;;;;21.60;15.47;;;;;;;;;;5013044;28;20773;-82
2023/11/29 07:56:32;;;;;;;15.70;11.80;;;;;;;;;;5013068;28;20412;-82
2023/11/29 07:58:58;;;;;;;18.57;14.20;;;;;;;;;;5013068;28;20886;-87
2023/11/29 08:01:24;;;;;;;19.30;16.20;;;;;;;;;;5011507;28;20426;-87
2023/11/29 08:03:52;;;;;;;16.80;14.50;;;;;;;;;;5013091;28;20676;-87
2023/11/29 08:06:20;;;;;;;22.50;15.03;;;;;;;;;;5013568;28;20422;-86
2023/11/29 08:08:46;;;;;;;19.30;15.60;;;;;;;;;;5006387;28;20526;-87
2023/11/29 08:11:12;;;;;;;16.70;12.87;;;;;;;;;;4980666;28;20415;-86
2023/11/29 08:13:38;;;;;;;17.03;14.40;;;;;;;;;;5012040;28;20412;-80
2023/11/29 08:16:05;;;;;;;17.53;14.77;;;;;;;;;;5016221;28;20429;-78
2023/11/29 08:18:31;;;;;;;20.60;13.53;;;;;;;;;;5015895;28;20774;-77
2023/11/29 08:20:57;;;;;;;19.90;14.60;;;;;;;;;;5015629;28;20418;-78
2023/11/29 08:23:23;;;;;;;14.47;12.03;;;;;;;;;;5020870;28;20420;-78
2023/11/29 08:25:50;;;;;;;16.47;14.23;;;;;;;;;;5032365;28;20480;-78
2023/11/29 08:28:16;;;;;;;18.10;13.50;;;;;;;;;;5035460;28;20939;-77
2023/11/29 08:30:42;;;;;;;15.30;13.70;;;;;;;;;;5019692;28;20564;-77
2023/11/29 08:33:08;;;;;;;18.20;13.00;;;;;;;;;;5015930;28;20849;-78
2023/11/29 08:35:34;;;;;;;19.20;12.97;;;;;;;;;;5015383;28;20454;-78
2023/11/29 08:38:00;;;;;;;18.50;13.88;;;;;;;;;;5015981;28;20445;-78
2023/11/29 08:40:26;;;;;;;17.70;13.40;;;;;;;;;;5015755;28;20631;-78
2023/11/29 08:42:52;;;;;;;17.37;13.87;;;;;;;;;;5016127;28;20473;-77
2023/11/29 08:45:18;;;;;;;22.03;15.03;;;;;;;;;;5014790;28;20509;-78
2023/11/29 08:47:44;;;;;;;17.50;13.77;;;;;;;;;;5014691;28;20446;-77
2023/11/29 08:50:10;;;;;;;21.27;13.53;;;;;;;;;;5015719;28;20425;-77
2023/11/29 08:52:36;;;;;;;16.40;13.17;;;;;;;;;;5015794;28;20445;-77
2023/11/29 08:55:04;;;;;;;17.90;13.60;;;;;;;;;;5015938;28;20414;-78
2023/11/29 08:57:33;;;;;;;16.83;14.30;;;;;;;;;;5016011;28;20456;-77
2023/11/29 08:59:59;;;;;;;22.57;15.47;;;;;;;;;;5015923;28;20425;-77
2023/11/29 09:02:27;;;;;;;19.50;14.27;;;;;;;;;;5015829;28;20401;-77
2023/11/29 09:04:53;;;;;;;18.37;13.03;;;;;;;;;;5015383;28;20477;-78
2023/11/29 09:07:19;;;;;;;17.27;13.43;;;;;;;;;;5014477;28;20914;-77
2023/11/29 09:09:45;;;;;;;17.60;13.97;;;;;;;;;;5015614;28;20911;-77
2023/11/29 09:12:11;;;;;;;16.47;12.77;;;;;;;;;;5014451;28;20417;-78
2023/11/29 09:14:38;;;;;;;15.10;12.70;;;;;;;;;;5014265;28;20532;-77
2023/11/29 09:17:04;;;;;;;15.40;12.07;;;;;;;;;;5015162;28;20414;-76
2023/11/29 09:19:32;;;;;;;18.90;15.00;;;;;;;;;;5014717;28;20503;-77
2023/11/29 09:21:58;;;;;;;16.30;13.27;;;;;;;;;;5014928;28;20470;-78
2023/11/29 09:24:26;;;;;;;17.63;15.00;;;;;;;;;;5015049;28;20478;-76
2023/11/29 09:26:54;;;;;;;19.70;12.87;;;;;;;;;;5013979;28;20406;-77
2023/11/29 09:29:20;;;;;;;17.53;12.90;;;;;;;;;;5015318;28;20414;-77
2023/11/29 09:31:46;;;;;;;17.67;13.10;;;;;;;;;;5015141;28;20499;-77
2023/11/29 09:34:12;;;;;;;16.80;13.50;;;;;;;;;;5014973;28;20953;-77
2023/11/29 09:36:38;;;;;;;17.53;14.33;;;;;;;;;;5015237;28;20444;-77
2023/11/29 09:39:12;;;;;;;18.17;12.63;;;;;;;;;;5015316;28;20444;-77
2023/11/29 09:41:38;;;;;;;18.73;13.87;;;;;;;;;;5015162;28;20408;-76
2023/11/29 09:44:05;;;;;;;17.43;13.07;;;;;;;;;;5013673;28;20458;-76
2023/11/29 09:46:31;;;;;;;15.57;12.60;;;;;;;;;;5015088;28;20427;-75
2023/11/29 09:48:58;;;;;;;18.03;14.30;;;;;;;;;;5013323;28;20422;-76
2023/11/29 09:51:24;;;;;;;19.67;14.37;;;;;;;;;;5014962;28;20453;-76
2023/11/29 09:53:50;;;;;;;17.23;12.50;;;;;;;;;;5024025;28;20427;-77
2023/11/29 09:56:16;;;;;;;17.33;13.43;;;;;;;;;;5034548;28;20787;-76
2023/11/29 09:58:42;;;;;;;14.60;12.37;;;;;;;;;;5034587;28;20413;-76
2023/11/29 10:01:08;;;;;;;21.90;13.83;;;;;;;;;;5034537;28;20425;-76
2023/11/29 10:03:34;;;;;;;16.70;13.10;;;;;;;;;;5034014;28;20409;-76
2023/11/29 10:06:06;;;;;;;18.20;12.80;;;;;;;;;;5034384;28;20417;-76
2023/11/29 10:08:32;;;;;;;16.73;13.63;;;;;;;;;;5034273;28;20950;-76
2023/11/29 10:11:00;;;;;;;13.67;12.13;;;;;;;;;;5034360;28;20411;-76
2023/11/29 10:13:26;;;;;;;18.53;12.70;;;;;;;;;;5034312;28;20508;-77
2023/11/29 10:15:53;;;;;;;15.87;12.63;;;;;;;;;;5034283;28;20408;-76
2023/11/29 10:18:19;;;;;;;15.77;13.03;;;;;;;;;;5033935;28;20413;-76
2023/11/29 10:20:49;;;;;;;18.10;14.30;;;;;;;;;;5034206;28;20419;-76
2023/11/29 10:23:15;;;;;;;17.50;12.70;;;;;;;;;;5034032;28;20417;-76
2023/11/29 10:25:42;;;;;;;17.00;12.60;;;;;;;;;;5032790;28;20476;-77
2023/11/29 10:28:08;;;;;;;15.87;13.60;;;;;;;;;;5034019;28;20497;-76
2023/11/29 10:30:34;;;;;;;14.07;11.23;;;;;;;;;;5032478;28;20988;-76
2023/11/29 10:33:02;;;;;;;13.57;10.83;;;;;;;;;;5033989;28;20441;-76
2023/11/29 10:35:30;;;;;;;12.27;10.80;;;;;;;;;;5033551;28;20431;-77
2023/11/29 10:38:11;;;;;;;14.63;12.03;;;;;;;;;;5033477;28;20412;-76
2023/11/29 10:40:38;;;;;;;15.70;12.87;;;;;;;;;;5033881;28;20405;-76
2023/11/29 10:43:05;;;;;;;14.03;10.43;;;;;;;;;;5033731;28;20413;-77
2023/11/29 10:45:31;;;;;;;12.97;10.97;;;;;;;;;;5033661;28;20534;-77
2023/11/29 10:47:58;;;;;;;13.63;11.57;;;;;;;;;;5033508;28;20423;-77
2023/11/29 10:50:25;;;;;;;13.80;10.97;;;;;;;;;;5033287;28;20398;-77
2023/11/29 10:52:51;;;;;;;16.83;12.20;;;;;;;;;;5033592;28;20521;-77
2023/11/29 10:55:18;;;;;;;15.17;11.63;;;;;;;;;;5033395;28;20397;-77
2023/11/29 10:57:48;;;;;;;16.67;13.40;;;;;;;;;;5032234;28;20468;-76
2023/11/29 11:00:15;;;;;;;17.00;14.50;;;;;;;;;;5033432;28;20406;-77
2023/11/29 11:02:47;;;;;;;18.23;12.73;;;;;;;;;;5033480;28;20772;-77
2023/11/29 11:05:16;;;;;;;15.23;11.57;;;;;;;;;;5032982;28;20475;-76
2023/11/29 11:07:42;;;;;;;17.37;12.80;;;;;;;;;;5032110;28;20921;-77
2023/11/29 11:10:10;;;;;;;16.37;12.70;;;;;;;;;;5033195;28;20471;-77
2023/11/29 11:12:36;;;;;;;16.40;13.00;;;;;;;;;;5033177;28;20803;-77
2023/11/29 11:15:07;;;;;;;17.10;13.80;;;;;;;;;;5033180;28;20427;-77
2023/11/29 11:17:33;;;;;;;14.97;12.10;;;;;;;;;;5033272;28;20440;-77
2023/11/29 11:20:04;;;;;;;15.57;13.03;;;;;;;;;;5032806;28;20925;-77
2023/11/29 11:22:34;;;;;;;18.90;14.97;;;;;;;;;;4986887;28;20810;-77
2023/11/29 11:25:03;;;;;;;16.30;13.50;;;;;;;;;;5013277;28;20480;-77
2023/11/29 11:27:33;;;;;;;14.43;12.40;;;;;;;;;;5013206;28;20445;-77
2023/11/29 11:30:04;;;;;;;14.70;12.23;;;;;;;;;;5013015;28;20409;-77
2023/11/29 11:32:42;;;;;;;15.23;11.80;;;;;;;;;;5013279;28;20430;-77
2023/11/29 11:35:17;;;;;;;14.43;11.90;;;;;;;;;;5011790;28;20510;-78
2023/11/29 11:37:44;;;;;;;14.57;11.90;;;;;;;;;;5013295;28;20520;-77
2023/11/29 11:40:13;;;;;;;14.23;11.73;;;;;;;;;;5013265;28;20433;-77
2023/11/29 11:42:39;;;;;;;14.13;11.60;;;;;;;;;;5011996;28;20455;-77
2023/11/29 11:45:06;;;;;;;19.13;11.83;;;;;;;;;;5013180;28;20502;-77
2023/11/29 11:47:32;;;;;;;18.00;13.23;;;;;;;;;;5013200;28;20418;-77
2023/11/29 11:49:58;;;;;;;15.57;11.90;;;;;;;;;;5015299;28;20953;-77
2023/11/29 11:52:25;;;;;;;14.23;12.10;;;;;;;;;;5017150;28;20413;-77
2023/11/29 11:54:51;;;;;;;12.50;10.47;;;;;;;;;;5017071;28;20441;-77
2023/11/29 11:57:17;;;;;;;13.73;11.57;;;;;;;;;;5017126;28;20451;-77
2023/11/29 11:59:43;;;;;;;15.37;12.27;;;;;;;;;;5016987;28;20418;-77
2023/11/29 12:02:09;;;;;;;15.80;13.87;;;;;;;;;;5017010;28;20422;-77
2023/11/29 12:04:35;;;;;;;17.33;12.60;;;;;;;;;;5016558;28;20934;-82
2023/11/29 12:07:03;;;;;;;13.80;12.40;;;;;;;;;;5015668;28;20507;-86
2023/11/29 12:09:29;;;;;;;14.13;11.77;;;;;;;;;;5016340;28;20421;-85
2023/11/29 12:12:07;;;;;;;18.37;11.60;;;;;;;;;;5016816;28;20406;-85
2023/11/29 12:14:33;;;;;;;13.33;11.07;;;;;;;;;;5016494;28;20410;-85
2023/11/29 12:16:59;;;;;;;14.73;11.70;;;;;;;;;;5015432;28;20782;-84
2023/11/29 12:19:25;;;;;;;13.27;11.50;;;;;;;;;;5016352;28;20764;-85
2023/11/29 12:21:51;;;;;;;13.97;11.13;;;;;;;;;;5016418;28;20418;-85
2023/11/29 12:24:20;;;;;;;17.23;12.20;;;;;;;;;;4974386;28;20492;-85
2023/11/29 12:26:46;;;;;;;14.45;12.82;;;;;;;;;;5016304;28;20415;-85
2023/11/29 12:29:15;;;;;;;13.67;11.20;;;;;;;;;;5015781;28;20173;-75
2023/11/29 12:31:43;;;;;;;16.60;12.07;;;;;;;;;;5016100;28;20463;-76
2023/11/29 12:34:09;;;;;;;15.87;12.10;;;;;;;;;;5016000;28;20414;-76
2023/11/29 12:36:34;;;;;;;13.67;11.43;;;;;;;;;;5016010;28;20431;-76
2023/11/29 12:39:01;;;;;;;18.40;13.13;;;;;;;;;;5016280;28;20765;-76
2023/11/29 12:41:27;;;;;;;15.77;11.33;;;;;;;;;;5016283;28;20518;-75
2023/11/29 12:43:53;;;;;;;15.23;13.10;;;;;;;;;;5016124;28;20840;-76
2023/11/29 12:46:19;;;;;;;15.33;13.27;;;;;;;;;;5016230;28;20768;-76
2023/11/29 12:48:45;;;;;;;16.07;14.23;;;;;;;;;;5015675;28;20408;-76
2023/11/29 12:51:14;;;;;;;14.43;12.80;;;;;;;;;;5016059;28;20425;-76
2023/11/29 12:53:40;;;;;;;17.87;13.60;;;;;;;;;;5015972;28;20849;-76
2023/11/29 12:56:06;;;;;;;17.43;13.47;;;;;;;;;;5015948;28;20510;-76
2023/11/29 12:58:32;;;;;;;17.70;13.27;;;;;;;;;;5015835;28;20504;-76
2023/11/29 13:01:01;;;;;;;17.93;12.77;;;;;;;;;;5015749;28;20882;-75
2023/11/29 13:03:27;;;;;;;16.33;12.20;;;;;;;;;;5015459;28;20418;-75
2023/11/29 13:05:53;;;;;;;14.30;11.60;;;;;;;;;;5015629;28;20488;-77
2023/11/29 13:08:18;;;;;;;15.30;11.50;;;;;;;;;;5015689;28;20411;-76
2023/11/29 13:10:44;;;;;;;11.43;9.73;;;;;;;;;;5015471;28;20879;-75
2023/11/29 13:13:10;;;;;;;14.03;9.37;;;;;;;;;;5015425;28;20546;-76
2023/11/29 13:15:36;;;;;;;13.80;10.50;;;;;;;;;;5015565;28;20910;-75
2023/11/29 13:18:02;;;;;;;12.13;8.30;;;;;;;;;;5015240;28;20400;-76
2023/11/29 13:20:28;;;;;;;13.17;9.80;;;;;;;;;;5014301;28;20447;-76
2023/11/29 13:22:54;;;;;;;12.60;9.30;;;;;;;;;;5015390;28;20415;-76
2023/11/29 13:25:20;;;;;;;9.80;8.03;;;;;;;;;;4975675;28;20473;-76
2023/11/29 13:27:46;;;;;;;12.10;8.53;;;;;;;;;;5015274;28;20413;-75
2023/11/29 13:30:12;;;;;;;11.90;7.40;;;;;;;;;;5015037;28;20977;-76
2023/11/29 13:32:38;;;;;;;9.73;7.17;;;;;;;;;;5015281;28;20421;-76
2023/11/29 13:35:04;;;;;;;8.83;7.23;;;;;;;;;;5014813;28;20473;-76
2023/11/29 13:37:32;;;;;;;9.90;7.13;;;;;;;;;;5015274;28;20413;-76
2023/11/29 13:39:58;;;;;;;9.97;7.20;;;;;;;;;;5015177;28;20418;-76
2023/11/29 13:42:24;;;;;;;7.70;6.13;;;;;;;;;;5015116;28;20807;-76
2023/11/29 13:44:50;;;;;;;9.30;7.00;;;;;;;;;;5014829;28;20819;-76
2023/11/29 13:47:16;;;;;;;10.93;7.67;;;;;;;;;;5014992;28;20418;-78
2023/11/29 13:49:42;;;;;;;10.40;6.37;;;;;;;;;;5014651;28;20472;-77
2023/11/29 13:52:08;;;;;;;12.20;8.30;;;;;;;;;;5017208;28;20410;-77
2023/11/29 13:54:34;;;;;;;14.03;6.80;;;;;;;;;;5014771;28;20399;-77
2023/11/29 13:57:01;;;;;;;9.77;7.90;;;;;;;;;;5014693;28;20521;-78
2023/11/29 13:59:30;;;;;;;11.07;7.63;;;;;;;;;;5013613;28;20938;-76
2023/11/29 14:01:59;;;;;;;9.53;7.20;;;;;;;;;;5014569;28;20433;-77
2023/11/29 14:04:24;;;;;;;10.30;7.90;;;;;;;;;;5014008;28;20449;-78
2023/11/29 14:06:52;;;;;;;10.73;6.60;;;;;;;;;;5014473;28;20267;-76
2023/11/29 14:09:18;;;;;;;11.77;8.77;;;;;;;;;;5014571;28;20411;-76
2023/11/29 14:11:44;;;;;;;12.80;8.60;;;;;;;;;;5013939;28;20902;-75
2023/11/29 14:14:10;;;;;;;11.60;7.03;;;;;;;;;;5014453;28;20407;-75